Aérodrome :
LOGIN :

S'inscrire | Disclaimer

   EN    FR    IT 

 










Légende :    VFR   VFR Marginal   IFR   IFR Intensif   IFR Très Intensif
Visi : 
Plafond : 
>= 8 km
>= 3000ft
5 à 8 km
1000 à 3000 ft
1500m à 5 km
500 à 1000 ft
800 à 1500m
200 à 500 ft
< 800m
< 200 ft
Symboles :   Orages  Brouillard  Fortes neiges  Fortes précipitations  Vent > 20 kt
SIGMETs :   Divers  Orages  Givrage  Turbulence  Onde Orograph.  Cendres Volcan.







- Altitude de l'aérodrome : 526 ft
- Code IATA : LTN
- Voir les cartes d'approche


EGGW - London Luton

METARs EXPIRÉS :
  • 241420Z AUTO 23015KT 9999 SCT030 OVC040 21/14 Q1012
  • 241350Z AUTO 23016KT 9999 BKN030 OVC044 22/14 Q1012
  • 241320Z AUTO 23012KT 9999 SCT029 BKN044 22/14 Q1013
  • 241250Z AUTO 25014KT 220V280 9999 BKN029 OVC045 22/14 Q1013
  • 241220Z AUTO 26015KT 9999 BKN029 22/13 Q1013
  • 241150Z 24013KT 210V270 9999 BKN025 23/14 Q1013

TAF TAF EGGW
Valide du 24 à 12h jusqu'au 25 à 12h UTC


241057Z 2412/2512 24013KT 9999 SCT025
PROB30
TEMPO 2412/2419 24016G26KT
BECMG 2505/2508 BKN010
TEMPO 2507/2511 6000 -RADZ BKN006
BECMG 2510/2512 SCT030
PROB30
TEMPO 2511/2512 26016G26KT 8000 -SHRA
ATIS : +44 1582 395 204
Pas de NOTAMs connus pour ce terrain.



MET'MAP, la Météo Aéronautique d'un coup d'oeil ! - Copyright ORBIFLY Décembre 2007 - Disclaimer

ORBIFLY MET'MAP TEAM :

Programmation & Développement : Alexandra Zaïnal
Conception & Développement : Baudouin d'Aumeries
Co-Programmation & Développement : Marc-Olivier Méhu
Soutien technique & logistique : Manuel Goepfert

Contact : metmap@orbifly.com




SOURCES & CREDITS :

   NOAA